Aviation Digital Data Service (ADDS)

Output produced by METARs form (0215 UTC 05 June 2020)
found at http://www.aviationweather.gov/metar/data/
 
METAR text: RJOF 041919Z 36003KT 9999 FEW010 BKN015 18/17 Q1006 RMK 1ST010 5SC015 A2972
Conditions at: RJOF (HOFU (JASDF) , JP) observed 1919 UTC 04 June 2020
Temperature: 18.0°C (64°F)
Dewpoint: 17.0°C (63°F) [RH = 94%]
Pressure (altimeter): 29.70 inches Hg (1006.0 mb)
Winds: from the N (360 degrees) at 3 MPH (3 knots; 1.5 m/s)
Visibility: 6 or more miles (10+ km)
Ceiling: 1500 feet AGL
Clouds: few clouds at 1000 feet AGL
broken clouds at 1500 feet AGL
Weather: no significant weather observed at this time

METAR text: RJOF 032034Z 02003KT 9999 FEW015 BKN018 BKN035 19/16 Q1005 RMK 1CU015 6CU018 7CU035 A2969
Conditions at: RJOF (HOFU (JASDF) , JP) observed 2034 UTC 03 June 2020
Temperature: 19.0°C (66°F)
Dewpoint: 16.0°C (61°F) [RH = 83%]
Pressure (altimeter): 29.68 inches Hg (1005.0 mb)
Winds: from the NNE (20 degrees) at 3 MPH (3 knots; 1.5 m/s)
Visibility: 6 or more miles (10+ km)
Ceiling: 1800 feet AGL
Clouds: few clouds at 1500 feet AGL
broken clouds at 1800 feet AGL
broken clouds at 3500 feet AGL
Weather: no significant weather observed at this time

METAR text: RJOF 031707Z 08003KT 9999 BKN025 BKN040 20/16 Q1005 RMK 5CU025 7SC040 A2968
Conditions at: RJOF (HOFU (JASDF) , JP) observed 1707 UTC 03 June 2020
Temperature: 20.0°C (68°F)
Dewpoint: 16.0°C (61°F) [RH = 78%]
Pressure (altimeter): 29.68 inches Hg (1005.0 mb)
Winds: from the E (80 degrees) at 3 MPH (3 knots; 1.5 m/s)
Visibility: 6 or more miles (10+ km)
Ceiling: 2500 feet AGL
Clouds: broken clouds at 2500 feet AGL
broken clouds at 4000 feet AGL
Weather: no significant weather observed at this time

METAR text: RJOF 031425Z 10005KT 9999 FEW020 BKN045 BKN/// 21/18 Q1006 RMK 1CU020 5SC045 A2971
Conditions at: RJOF (HOFU (JASDF) , JP) observed 1425 UTC 03 June 2020
Temperature: 21.0°C (70°F)
Dewpoint: 18.0°C (64°F) [RH = 83%]
Pressure (altimeter): 29.70 inches Hg (1006.0 mb)
Winds: from the E (100 degrees) at 6 MPH (5 knots; 2.6 m/s)
Visibility: 6 or more miles (10+ km)
Ceiling: 4500 feet AGL
Clouds: few clouds at 2000 feet AGL
broken clouds at 4500 feet AGL
Weather: no significant weather observed at this time